sensor_id;sensor_type;location;lat;lon;timestamp;pressure;altitude;pressure_sealevel;temperature;humidity
10348;BME280;5220;43.192;23.284;2023-05-07T00:00:10;97235.19;;;13.15;100.00
10348;BME280;5220;43.192;23.284;2023-05-07T00:02:37;97227.38;;;13.15;100.00
10348;BME280;5220;43.192;23.284;2023-05-07T00:05:04;97226.66;;;13.13;100.00
10348;BME280;5220;43.192;23.284;2023-05-07T00:07:31;97222.38;;;13.12;100.00
10348;BME280;5220;43.192;23.284;2023-05-07T00:09:58;97222.50;;;12.99;100.00
10348;BME280;5220;43.192;23.284;2023-05-07T00:12:26;97227.47;;;13.02;100.00
10348;BME280;5220;43.192;23.284;2023-05-07T00:14:55;97216.19;;;13.02;100.00
10348;BME280;5220;43.192;23.284;2023-05-07T00:17:22;97220.25;;;12.83;100.00
10348;BME280;5220;43.192;23.284;2023-05-07T00:19:49;97224.28;;;12.87;100.00
10348;BME280;5220;43.192;23.284;2023-05-07T00:22:15;97224.50;;;12.95;100.00
10348;BME280;5220;43.192;23.284;2023-05-07T00:24:42;97225.22;;;12.98;100.00
10348;BME280;5220;43.192;23.284;2023-05-07T00:27:09;97216.09;;;12.92;100.00
10348;BME280;5220;43.192;23.284;2023-05-07T00:29:37;97214.28;;;12.92;100.00
10348;BME280;5220;43.192;23.284;2023-05-07T00:32:05;97216.09;;;12.92;100.00
10348;BME280;5220;43.192;23.284;2023-05-07T00:34:31;97211.00;;;12.90;100.00
10348;BME280;5220;43.192;23.284;2023-05-07T00:36:58;97208.63;;;12.87;100.00
10348;BME280;5220;43.192;23.284;2023-05-07T00:39:25;97213.25;;;12.84;100.00
10348;BME280;5220;43.192;23.284;2023-05-07T00:41:52;97219.53;;;12.81;100.00
10348;BME280;5220;43.192;23.284;2023-05-07T00:44:19;97210.75;;;12.82;100.00
10348;BME280;5220;43.192;23.284;2023-05-07T00:46:48;97209.34;;;12.78;100.00
10348;BME280;5220;43.192;23.284;2023-05-07T00:49:15;97206.81;;;12.77;100.00
10348;BME280;5220;43.192;23.284;2023-05-07T00:51:42;97201.97;;;12.72;100.00
10348;BME280;5220;43.192;23.284;2023-05-07T00:54:09;97201.16;;;12.72;100.00
10348;BME280;5220;43.192;23.284;2023-05-07T00:56:37;97210.66;;;12.73;100.00
10348;BME280;5220;43.192;23.284;2023-05-07T00:59:05;97204.00;;;12.69;100.00
10348;BME280;5220;43.192;23.284;2023-05-07T01:01:32;97198.28;;;12.53;100.00
10348;BME280;5220;43.192;23.284;2023-05-07T01:04:01;97197.47;;;12.63;100.00
10348;BME280;5220;43.192;23.284;2023-05-07T01:06:28;97195.94;;;12.61;100.00
10348;BME280;5220;43.192;23.284;2023-05-07T01:08:56;97189.75;;;12.62;100.00
10348;BME280;5220;43.192;23.284;2023-05-07T01:11:23;97189.97;;;12.59;100.00
10348;BME280;5220;43.192;23.284;2023-05-07T01:13:51;97184.31;;;12.54;100.00
10348;BME280;5220;43.192;23.284;2023-05-07T01:16:18;97187.97;;;12.51;100.00
10348;BME280;5220;43.192;23.284;2023-05-07T01:18:45;97185.38;;;12.51;100.00
10348;BME280;5220;43.192;23.284;2023-05-07T01:21:16;97177.53;;;12.51;100.00
10348;BME280;5220;43.192;23.284;2023-05-07T01:23:45;97186.75;;;12.22;100.00
10348;BME280;5220;43.192;23.284;2023-05-07T01:26:13;97179.66;;;12.35;100.00
10348;BME280;5220;43.192;23.284;2023-05-07T01:28:40;97180.03;;;12.42;100.00
10348;BME280;5220;43.192;23.284;2023-05-07T01:31:08;97185.94;;;12.44;100.00
10348;BME280;5220;43.192;23.284;2023-05-07T01:33:36;97171.97;;;12.45;100.00
10348;BME280;5220;43.192;23.284;2023-05-07T01:36:05;97176.44;;;12.43;100.00
10348;BME280;5220;43.192;23.284;2023-05-07T01:38:34;97169.09;;;12.25;100.00
10348;BME280;5220;43.192;23.284;2023-05-07T01:41:03;97164.84;;;12.35;100.00
10348;BME280;5220;43.192;23.284;2023-05-07T01:43:30;97171.84;;;12.35;100.00
10348;BME280;5220;43.192;23.284;2023-05-07T01:45:57;97173.00;;;12.31;100.00
10348;BME280;5220;43.192;23.284;2023-05-07T01:48:25;97165.78;;;12.34;100.00
10348;BME280;5220;43.192;23.284;2023-05-07T01:50:52;97164.72;;;12.26;100.00
10348;BME280;5220;43.192;23.284;2023-05-07T01:53:19;97162.81;;;12.28;100.00
10348;BME280;5220;43.192;23.284;2023-05-07T01:55:46;97164.22;;;12.21;100.00
10348;BME280;5220;43.192;23.284;2023-05-07T01:58:14;97151.06;;;12.22;100.00
10348;BME280;5220;43.192;23.284;2023-05-07T02:00:41;97153.91;;;12.19;100.00
10348;BME280;5220;43.192;23.284;2023-05-07T02:03:07;97145.72;;;12.13;100.00
10348;BME280;5220;43.192;23.284;2023-05-07T02:05:34;97152.47;;;12.15;100.00
10348;BME280;5220;43.192;23.284;2023-05-07T02:08:01;97144.66;;;12.15;100.00
10348;BME280;5220;43.192;23.284;2023-05-07T02:10:27;97133.38;;;12.04;100.00
10348;BME280;5220;43.192;23.284;2023-05-07T02:12:54;97152.06;;;11.86;100.00
10348;BME280;5220;43.192;23.284;2023-05-07T02:15:23;97134.50;;;11.77;100.00
10348;BME280;5220;43.192;23.284;2023-05-07T02:18:00;97149.47;;;11.86;100.00
10348;BME280;5220;43.192;23.284;2023-05-07T02:20:27;97127.56;;;11.65;100.00
10348;BME280;5220;43.192;23.284;2023-05-07T02:22:53;97129.22;;;11.90;100.00
10348;BME280;5220;43.192;23.284;2023-05-07T02:25:20;97132.63;;;11.79;100.00
10348;BME280;5220;43.192;23.284;2023-05-07T02:27:47;97136.78;;;11.93;100.00
10348;BME280;5220;43.192;23.284;2023-05-07T02:30:14;97132.63;;;11.79;100.00
10348;BME280;5220;43.192;23.284;2023-05-07T02:32:42;97128.03;;;11.94;100.00
10348;BME280;5220;43.192;23.284;2023-05-07T02:35:09;97130.59;;;11.72;100.00
10348;BME280;5220;43.192;23.284;2023-05-07T02:37:36;97128.38;;;11.78;100.00
10348;BME280;5220;43.192;23.284;2023-05-07T02:40:03;97123.28;;;11.88;100.00
10348;BME280;5220;43.192;23.284;2023-05-07T02:42:30;97136.84;;;11.69;100.00
10348;BME280;5220;43.192;23.284;2023-05-07T02:44:57;97130.19;;;11.89;100.00
10348;BME280;5220;43.192;23.284;2023-05-07T02:47:24;97126.38;;;11.93;100.00
10348;BME280;5220;43.192;23.284;2023-05-07T02:49:53;97130.28;;;11.99;100.00
10348;BME280;5220;43.192;23.284;2023-05-07T02:52:20;97126.75;;;12.00;100.00
10348;BME280;5220;43.192;23.284;2023-05-07T02:54:47;97122.44;;;11.76;100.00
10348;BME280;5220;43.192;23.284;2023-05-07T02:57:13;97129.53;;;11.74;100.00
10348;BME280;5220;43.192;23.284;2023-05-07T02:59:41;97135.38;;;11.89;100.00
10348;BME280;5220;43.192;23.284;2023-05-07T03:02:08;97138.38;;;11.61;100.00
10348;BME280;5220;43.192;23.284;2023-05-07T03:04:35;97137.50;;;11.84;100.00
10348;BME280;5220;43.192;23.284;2023-05-07T03:07:03;97148.75;;;11.84;100.00
10348;BME280;5220;43.192;23.284;2023-05-07T03:09:29;97140.84;;;11.86;100.00
10348;BME280;5220;43.192;23.284;2023-05-07T03:11:56;97141.53;;;11.88;100.00
10348;BME280;5220;43.192;23.284;2023-05-07T03:14:23;97144.75;;;11.92;100.00
10348;BME280;5220;43.192;23.284;2023-05-07T03:16:50;97149.97;;;11.92;100.00
10348;BME280;5220;43.192;23.284;2023-05-07T03:19:16;97156.34;;;11.88;100.00
10348;BME280;5220;43.192;23.284;2023-05-07T03:21:43;97158.94;;;11.88;100.00
10348;BME280;5220;43.192;23.284;2023-05-07T03:24:11;97165.00;;;11.88;100.00
10348;BME280;5220;43.192;23.284;2023-05-07T03:26:38;97168.28;;;11.79;100.00
10348;BME280;5220;43.192;23.284;2023-05-07T03:29:04;97172.91;;;11.86;100.00
10348;BME280;5220;43.192;23.284;2023-05-07T03:31:31;97177.56;;;11.83;100.00
10348;BME280;5220;43.192;23.284;2023-05-07T03:33:58;97176.81;;;11.81;100.00
10348;BME280;5220;43.192;23.284;2023-05-07T03:36:25;97178.06;;;11.64;100.00
10348;BME280;5220;43.192;23.284;2023-05-07T03:38:52;97177.75;;;11.80;100.00
10348;BME280;5220;43.192;23.284;2023-05-07T03:41:21;97181.69;;;11.62;100.00
10348;BME280;5220;43.192;23.284;2023-05-07T03:43:47;97180.72;;;11.75;100.00
10348;BME280;5220;43.192;23.284;2023-05-07T03:46:14;97184.09;;;11.89;100.00
10348;BME280;5220;43.192;23.284;2023-05-07T03:48:41;97191.69;;;11.92;100.00
10348;BME280;5220;43.192;23.284;2023-05-07T03:51:07;97179.03;;;11.74;100.00
10348;BME280;5220;43.192;23.284;2023-05-07T03:53:34;97191.22;;;11.98;100.00
10348;BME280;5220;43.192;23.284;2023-05-07T03:56:01;97184.47;;;12.06;100.00
10348;BME280;5220;43.192;23.284;2023-05-07T03:58:29;97180.09;;;12.07;100.00
10348;BME280;5220;43.192;23.284;2023-05-07T04:00:55;97186.38;;;12.04;100.00
10348;BME280;5220;43.192;23.284;2023-05-07T04:03:22;97182.19;;;11.91;100.00
10348;BME280;5220;43.192;23.284;2023-05-07T04:05:49;97180.81;;;12.09;100.00
10348;BME280;5220;43.192;23.284;2023-05-07T04:08:15;97192.44;;;12.27;100.00
10348;BME280;5220;43.192;23.284;2023-05-07T04:10:42;97188.31;;;12.35;100.00
10348;BME280;5220;43.192;23.284;2023-05-07T04:13:09;97191.03;;;12.23;100.00
10348;BME280;5220;43.192;23.284;2023-05-07T04:15:37;97196.84;;;12.37;100.00
10348;BME280;5220;43.192;23.284;2023-05-07T04:18:03;97199.00;;;12.55;100.00
10348;BME280;5220;43.192;23.284;2023-05-07T04:20:30;97197.56;;;12.62;100.00
10348;BME280;5220;43.192;23.284;2023-05-07T04:22:57;97202.78;;;12.62;100.00
10348;BME280;5220;43.192;23.284;2023-05-07T04:25:24;97208.13;;;12.71;100.00
10348;BME280;5220;43.192;23.284;2023-05-07T04:27:51;97211.72;;;12.81;100.00
10348;BME280;5220;43.192;23.284;2023-05-07T04:30:18;97213.59;;;12.90;100.00
10348;BME280;5220;43.192;23.284;2023-05-07T04:32:47;97217.41;;;12.98;100.00
10348;BME280;5220;43.192;23.284;2023-05-07T04:35:14;97214.16;;;13.05;100.00
10348;BME280;5220;43.192;23.284;2023-05-07T04:37:41;97215.53;;;13.11;100.00
10348;BME280;5220;43.192;23.284;2023-05-07T04:40:08;97209.69;;;13.18;100.00
10348;BME280;5220;43.192;23.284;2023-05-07T04:42:35;97215.94;;;13.27;100.00
10348;BME280;5220;43.192;23.284;2023-05-07T04:45:02;97213.06;;;13.41;100.00
10348;BME280;5220;43.192;23.284;2023-05-07T04:47:30;97210.91;;;13.57;100.00
10348;BME280;5220;43.192;23.284;2023-05-07T04:49:58;97210.59;;;13.71;100.00
10348;BME280;5220;43.192;23.284;2023-05-07T04:52:25;97207.31;;;13.90;100.00
10348;BME280;5220;43.192;23.284;2023-05-07T04:54:52;97211.41;;;14.04;100.00
10348;BME280;5220;43.192;23.284;2023-05-07T04:57:18;97208.78;;;14.24;100.00
10348;BME280;5220;43.192;23.284;2023-05-07T04:59:45;97209.88;;;14.42;100.00
10348;BME280;5220;43.192;23.284;2023-05-07T05:02:12;97215.13;;;14.63;100.00
10348;BME280;5220;43.192;23.284;2023-05-07T05:04:38;97216.00;;;14.83;100.00
10348;BME280;5220;43.192;23.284;2023-05-07T05:07:06;97214.56;;;14.99;100.00
10348;BME280;5220;43.192;23.284;2023-05-07T05:09:33;97212.56;;;15.13;100.00
10348;BME280;5220;43.192;23.284;2023-05-07T05:12:00;97218.00;;;15.40;100.00
10348;BME280;5220;43.192;23.284;2023-05-07T05:14:26;97212.84;;;15.88;100.00
10348;BME280;5220;43.192;23.284;2023-05-07T05:16:53;97215.63;;;16.52;100.00
10348;BME280;5220;43.192;23.284;2023-05-07T05:19:20;97211.22;;;17.26;100.00
10348;BME280;5220;43.192;23.284;2023-05-07T05:21:46;97217.03;;;18.10;100.00
10348;BME280;5220;43.192;23.284;2023-05-07T05:24:14;97218.31;;;19.01;100.00
10348;BME280;5220;43.192;23.284;2023-05-07T05:26:41;97208.03;;;19.90;100.00
10348;BME280;5220;43.192;23.284;2023-05-07T05:29:08;97203.88;;;20.84;100.00
10348;BME280;5220;43.192;23.284;2023-05-07T05:31:35;97214.91;;;21.73;100.00
10348;BME280;5220;43.192;23.284;2023-05-07T05:34:02;97211.75;;;22.46;100.00
10348;BME280;5220;43.192;23.284;2023-05-07T05:36:29;97214.25;;;22.85;98.70
10348;BME280;5220;43.192;23.284;2023-05-07T05:38:55;97215.34;;;22.90;92.64
10348;BME280;5220;43.192;23.284;2023-05-07T05:41:24;97209.84;;;22.77;94.79
10348;BME280;5220;43.192;23.284;2023-05-07T05:43:50;97221.75;;;22.59;89.35
10348;BME280;5220;43.192;23.284;2023-05-07T05:46:17;97216.69;;;22.34;89.40
10348;BME280;5220;43.192;23.284;2023-05-07T05:48:44;97217.59;;;22.04;95.81
10348;BME280;5220;43.192;23.284;2023-05-07T05:51:10;97214.63;;;21.68;96.33
10348;BME280;5220;43.192;23.284;2023-05-07T05:53:37;97217.53;;;21.20;97.00
10348;BME280;5220;43.192;23.284;2023-05-07T05:56:04;97220.41;;;20.78;99.79
10348;BME280;5220;43.192;23.284;2023-05-07T05:58:32;97221.97;;;20.48;100.00
10348;BME280;5220;43.192;23.284;2023-05-07T06:00:59;97207.41;;;20.20;100.00
10348;BME280;5220;43.192;23.284;2023-05-07T06:03:27;97210.22;;;19.94;100.00
10348;BME280;5220;43.192;23.284;2023-05-07T06:05:54;97208.19;;;19.72;100.00
10348;BME280;5220;43.192;23.284;2023-05-07T06:08:21;97214.91;;;19.08;100.00
10348;BME280;5220;43.192;23.284;2023-05-07T06:10:47;97218.63;;;18.98;100.00
10348;BME280;5220;43.192;23.284;2023-05-07T06:13:14;97206.91;;;18.92;100.00
10348;BME280;5220;43.192;23.284;2023-05-07T06:15:42;97212.81;;;18.86;100.00
10348;BME280;5220;43.192;23.284;2023-05-07T06:18:09;97214.50;;;18.95;100.00
10348;BME280;5220;43.192;23.284;2023-05-07T06:20:36;97211.06;;;18.69;100.00
10348;BME280;5220;43.192;23.284;2023-05-07T06:23:03;97218.06;;;18.52;100.00
10348;BME280;5220;43.192;23.284;2023-05-07T06:25:29;97207.28;;;18.46;100.00
10348;BME280;5220;43.192;23.284;2023-05-07T06:27:56;97212.66;;;18.62;100.00
10348;BME280;5220;43.192;23.284;2023-05-07T06:30:23;97215.03;;;18.73;100.00
10348;BME280;5220;43.192;23.284;2023-05-07T06:32:51;97210.31;;;18.33;100.00
10348;BME280;5220;43.192;23.284;2023-05-07T06:35:18;97210.56;;;18.48;100.00
10348;BME280;5220;43.192;23.284;2023-05-07T06:37:44;97214.47;;;18.44;100.00
10348;BME280;5220;43.192;23.284;2023-05-07T06:40:11;97215.94;;;18.38;100.00
10348;BME280;5220;43.192;23.284;2023-05-07T06:42:38;97212.84;;;18.43;100.00
10348;BME280;5220;43.192;23.284;2023-05-07T06:45:06;97213.28;;;18.56;100.00
10348;BME280;5220;43.192;23.284;2023-05-07T06:47:33;97209.34;;;18.60;100.00
10348;BME280;5220;43.192;23.284;2023-05-07T06:50:01;97213.66;;;18.61;100.00
10348;BME280;5220;43.192;23.284;2023-05-07T06:52:28;97206.78;;;18.68;100.00
10348;BME280;5220;43.192;23.284;2023-05-07T06:54:55;97222.22;;;18.63;100.00
10348;BME280;5220;43.192;23.284;2023-05-07T06:57:21;97217.56;;;18.57;100.00
10348;BME280;5220;43.192;23.284;2023-05-07T06:59:48;97218.19;;;18.51;100.00
10348;BME280;5220;43.192;23.284;2023-05-07T07:02:15;97218.72;;;18.37;100.00
10348;BME280;5220;43.192;23.284;2023-05-07T07:04:42;97218.38;;;18.49;100.00
10348;BME280;5220;43.192;23.284;2023-05-07T07:07:10;97218.22;;;18.59;100.00
10348;BME280;5220;43.192;23.284;2023-05-07T07:09:37;97217.44;;;18.58;100.00
10348;BME280;5220;43.192;23.284;2023-05-07T07:12:03;97223.78;;;18.73;100.00
10348;BME280;5220;43.192;23.284;2023-05-07T07:14:30;97227.06;;;18.50;100.00
10348;BME280;5220;43.192;23.284;2023-05-07T07:16:57;97227.88;;;18.68;100.00
10348;BME280;5220;43.192;23.284;2023-05-07T07:19:24;97228.66;;;18.68;100.00
10348;BME280;5220;43.192;23.284;2023-05-07T07:21:50;97231.06;;;18.79;100.00
10348;BME280;5220;43.192;23.284;2023-05-07T07:24:18;97234.03;;;18.85;100.00
10348;BME280;5220;43.192;23.284;2023-05-07T07:26:46;97234.53;;;18.54;100.00
10348;BME280;5220;43.192;23.284;2023-05-07T07:29:13;97229.19;;;18.72;100.00
10348;BME280;5220;43.192;23.284;2023-05-07T07:31:39;97236.56;;;18.94;100.00
10348;BME280;5220;43.192;23.284;2023-05-07T07:34:06;97235.81;;;19.10;100.00
10348;BME280;5220;43.192;23.284;2023-05-07T07:36:33;97236.44;;;18.96;100.00
10348;BME280;5220;43.192;23.284;2023-05-07T07:38:59;97244.69;;;18.75;100.00
10348;BME280;5220;43.192;23.284;2023-05-07T07:41:27;97245.84;;;18.98;100.00
10348;BME280;5220;43.192;23.284;2023-05-07T07:43:54;97246.22;;;19.11;100.00
10348;BME280;5220;43.192;23.284;2023-05-07T07:46:21;97248.38;;;19.16;100.00
10348;BME280;5220;43.192;23.284;2023-05-07T07:48:47;97251.50;;;19.11;100.00
10348;BME280;5220;43.192;23.284;2023-05-07T07:51:14;97248.19;;;19.09;100.00
10348;BME280;5220;43.192;23.284;2023-05-07T07:53:41;97243.28;;;19.14;100.00
10348;BME280;5220;43.192;23.284;2023-05-07T07:56:07;97248.56;;;19.14;100.00
10348;BME280;5220;43.192;23.284;2023-05-07T07:58:35;97245.09;;;19.14;100.00
10348;BME280;5220;43.192;23.284;2023-05-07T08:01:03;97254.69;;;19.23;100.00
10348;BME280;5220;43.192;23.284;2023-05-07T08:03:30;97255.03;;;19.28;100.00
10348;BME280;5220;43.192;23.284;2023-05-07T08:05:58;97252.50;;;19.44;100.00
10348;BME280;5220;43.192;23.284;2023-05-07T08:08:25;97249.22;;;19.50;100.00
10348;BME280;5220;43.192;23.284;2023-05-07T08:10:52;97247.47;;;19.67;100.00
10348;BME280;5220;43.192;23.284;2023-05-07T08:13:18;97243.66;;;19.77;100.00
10348;BME280;5220;43.192;23.284;2023-05-07T08:15:46;97245.84;;;19.82;100.00
10348;BME280;5220;43.192;23.284;2023-05-07T08:18:13;97239.38;;;19.68;100.00
10348;BME280;5220;43.192;23.284;2023-05-07T08:20:40;97240.22;;;19.77;100.00
10348;BME280;5220;43.192;23.284;2023-05-07T08:23:07;97241.25;;;19.92;100.00
10348;BME280;5220;43.192;23.284;2023-05-07T08:25:34;97241.75;;;19.96;100.00
10348;BME280;5220;43.192;23.284;2023-05-07T08:28:01;97238.13;;;20.13;100.00
10348;BME280;5220;43.192;23.284;2023-05-07T08:30:28;97249.56;;;20.37;100.00
10348;BME280;5220;43.192;23.284;2023-05-07T08:32:56;97242.28;;;20.31;100.00
10348;BME280;5220;43.192;23.284;2023-05-07T08:35:23;97243.28;;;20.38;100.00
10348;BME280;5220;43.192;23.284;2023-05-07T08:37:50;97248.91;;;20.35;100.00
10348;BME280;5220;43.192;23.284;2023-05-07T08:40:17;97252.69;;;20.57;100.00
10348;BME280;5220;43.192;23.284;2023-05-07T08:42:44;97246.53;;;20.65;100.00
10348;BME280;5220;43.192;23.284;2023-05-07T08:45:12;97249.50;;;20.78;100.00
10348;BME280;5220;43.192;23.284;2023-05-07T08:47:43;97243.22;;;20.87;100.00
10348;BME280;5220;43.192;23.284;2023-05-07T08:50:13;97243.22;;;20.87;99.64
10348;BME280;5220;43.192;23.284;2023-05-07T08:52:40;97235.28;;;20.95;100.00
10348;BME280;5220;43.192;23.284;2023-05-07T08:55:08;97223.00;;;21.02;100.00
10348;BME280;5220;43.192;23.284;2023-05-07T08:57:35;97226.13;;;21.22;100.00
10348;BME280;5220;43.192;23.284;2023-05-07T09:00:02;97226.66;;;21.01;100.00
10348;BME280;5220;43.192;23.284;2023-05-07T09:02:29;97224.66;;;21.11;100.00
10348;BME280;5220;43.192;23.284;2023-05-07T09:04:56;97226.78;;;21.16;99.28
10348;BME280;5220;43.192;23.284;2023-05-07T09:07:25;97216.16;;;21.24;98.82
10348;BME280;5220;43.192;23.284;2023-05-07T09:09:52;97224.50;;;21.05;96.89
10348;BME280;5220;43.192;23.284;2023-05-07T09:12:21;97221.03;;;20.96;99.55
10348;BME280;5220;43.192;23.284;2023-05-07T09:14:48;97215.44;;;20.91;100.00
10348;BME280;5220;43.192;23.284;2023-05-07T09:17:15;97219.88;;;20.99;99.02
10348;BME280;5220;43.192;23.284;2023-05-07T09:19:44;97216.38;;;21.06;100.00
10348;BME280;5220;43.192;23.284;2023-05-07T09:22:10;97212.59;;;21.17;100.00
10348;BME280;5220;43.192;23.284;2023-05-07T09:24:39;97208.22;;;21.24;97.51
10348;BME280;5220;43.192;23.284;2023-05-07T09:27:06;97204.69;;;21.39;98.48
10348;BME280;5220;43.192;23.284;2023-05-07T09:29:35;97200.41;;;21.38;96.46
10348;BME280;5220;43.192;23.284;2023-05-07T09:32:02;97204.78;;;21.54;100.00
10348;BME280;5220;43.192;23.284;2023-05-07T09:34:29;97202.94;;;21.55;97.15
10348;BME280;5220;43.192;23.284;2023-05-07T09:36:55;97191.63;;;21.69;93.54
10348;BME280;5220;43.192;23.284;2023-05-07T09:39:23;97183.38;;;21.86;100.00
10348;BME280;5220;43.192;23.284;2023-05-07T09:41:51;97189.75;;;21.77;99.52
10348;BME280;5220;43.192;23.284;2023-05-07T09:44:20;97188.38;;;21.89;98.35
10348;BME280;5220;43.192;23.284;2023-05-07T09:46:53;97186.16;;;22.01;93.72
10348;BME280;5220;43.192;23.284;2023-05-07T09:49:23;97179.19;;;22.23;93.94
10348;BME280;5220;43.192;23.284;2023-05-07T09:51:51;97176.47;;;22.08;91.26
10348;BME280;5220;43.192;23.284;2023-05-07T09:54:18;97180.34;;;22.20;93.35
10348;BME280;5220;43.192;23.284;2023-05-07T09:56:47;97178.22;;;22.16;93.82
10348;BME280;5220;43.192;23.284;2023-05-07T09:59:16;97181.16;;;22.21;90.06
10348;BME280;5220;43.192;23.284;2023-05-07T10:01:44;97176.06;;;22.19;92.04
10348;BME280;5220;43.192;23.284;2023-05-07T10:04:11;97178.34;;;22.00;91.85
10348;BME280;5220;43.192;23.284;2023-05-07T10:06:39;97173.06;;;22.00;88.78
10348;BME280;5220;43.192;23.284;2023-05-07T10:09:07;97163.28;;;22.00;89.76
10348;BME280;5220;43.192;23.284;2023-05-07T10:11:34;97167.38;;;22.25;89.36
10348;BME280;5220;43.192;23.284;2023-05-07T10:14:01;97168.28;;;22.32;91.96
10348;BME280;5220;43.192;23.284;2023-05-07T10:16:31;97166.66;;;22.31;92.93
10348;BME280;5220;43.192;23.284;2023-05-07T10:18:59;97168.38;;;22.24;93.42
10348;BME280;5220;43.192;23.284;2023-05-07T10:21:27;97168.22;;;22.26;93.83
10348;BME280;5220;43.192;23.284;2023-05-07T10:23:59;97161.28;;;22.39;93.17
10348;BME280;5220;43.192;23.284;2023-05-07T10:26:28;97161.38;;;22.46;91.52
10348;BME280;5220;43.192;23.284;2023-05-07T10:29:02;97159.47;;;22.55;90.15
10348;BME280;5220;43.192;23.284;2023-05-07T10:31:48;97147.44;;;22.67;86.46
10348;BME280;5220;43.192;23.284;2023-05-07T10:34:20;97146.91;;;22.71;93.54
10348;BME280;5220;43.192;23.284;2023-05-07T10:36:49;97144.06;;;22.73;96.46
10348;BME280;5220;43.192;23.284;2023-05-07T10:39:17;97147.09;;;22.84;91.49
10348;BME280;5220;43.192;23.284;2023-05-07T10:41:44;97140.22;;;22.90;96.01
10348;BME280;5220;43.192;23.284;2023-05-07T10:44:11;97143.97;;;22.95;96.15
10348;BME280;5220;43.192;23.284;2023-05-07T10:46:39;97137.72;;;23.18;97.21
10348;BME280;5220;43.192;23.284;2023-05-07T10:49:07;97131.53;;;23.46;89.70
10348;BME280;5220;43.192;23.284;2023-05-07T10:51:34;97128.06;;;23.67;85.34
10348;BME280;5220;43.192;23.284;2023-05-07T10:54:21;97122.44;;;23.77;90.37
10348;BME280;5220;43.192;23.284;2023-05-07T10:56:49;97117.97;;;23.77;90.36
10348;BME280;5220;43.192;23.284;2023-05-07T10:59:34;97126.69;;;23.71;88.99
10348;BME280;5220;43.192;23.284;2023-05-07T11:02:08;97119.81;;;24.04;86.55
10348;BME280;5220;43.192;23.284;2023-05-07T11:04:36;97124.91;;;23.99;85.55
10348;BME280;5220;43.192;23.284;2023-05-07T11:07:28;97122.34;;;23.85;86.48
10348;BME280;5220;43.192;23.284;2023-05-07T11:10:04;97117.91;;;23.71;87.53
10348;BME280;5220;43.192;23.284;2023-05-07T11:12:52;97112.19;;;23.74;86.01
10348;BME280;5220;43.192;23.284;2023-05-07T11:15:39;97109.22;;;23.26;89.93
10348;BME280;5220;43.192;23.284;2023-05-07T11:18:08;97109.13;;;23.20;88.32
10348;BME280;5220;43.192;23.284;2023-05-07T11:20:50;97114.59;;;22.97;92.33
10348;BME280;5220;43.192;23.284;2023-05-07T11:26:44;97106.63;;;23.33;87.88
10348;BME280;5220;43.192;23.284;2023-05-07T11:29:12;97102.97;;;23.70;79.00
10348;BME280;5220;43.192;23.284;2023-05-07T11:31:39;97100.44;;;23.62;75.49
10348;BME280;5220;43.192;23.284;2023-05-07T11:34:08;97106.50;;;23.77;72.00
10348;BME280;5220;43.192;23.284;2023-05-07T11:36:35;97087.94;;;24.04;66.54
10348;BME280;5220;43.192;23.284;2023-05-07T11:39:23;97095.38;;;24.37;67.32
10348;BME280;5220;43.192;23.284;2023-05-07T11:41:50;97102.56;;;23.73;74.73
10348;BME280;5220;43.192;23.284;2023-05-07T11:44:17;97100.31;;;24.12;76.58
10348;BME280;5220;43.192;23.284;2023-05-07T11:46:44;97103.06;;;24.04;71.50
10348;BME280;5220;43.192;23.284;2023-05-07T11:49:12;97095.44;;;24.16;74.43
10348;BME280;5220;43.192;23.284;2023-05-07T11:51:39;97088.25;;;24.16;74.98
10348;BME280;5220;43.192;23.284;2023-05-07T11:54:08;97094.22;;;24.18;71.42
10348;BME280;5220;43.192;23.284;2023-05-07T11:56:36;97097.97;;;23.60;74.64
10348;BME280;5220;43.192;23.284;2023-05-07T11:59:04;97096.88;;;23.76;74.30
10348;BME280;5220;43.192;23.284;2023-05-07T12:01:30;97095.63;;;23.93;72.34
10348;BME280;5220;43.192;23.284;2023-05-07T12:03:57;97095.59;;;24.14;64.64
10348;BME280;5220;43.192;23.284;2023-05-07T12:06:25;97103.44;;;24.01;65.08
10348;BME280;5220;43.192;23.284;2023-05-07T12:08:53;97093.41;;;23.96;61.76
10348;BME280;5220;43.192;23.284;2023-05-07T12:11:23;97083.81;;;24.23;63.82
10348;BME280;5220;43.192;23.284;2023-05-07T12:13:51;97091.97;;;24.49;61.31
10348;BME280;5220;43.192;23.284;2023-05-07T12:16:19;97082.03;;;24.65;61.23
10348;BME280;5220;43.192;23.284;2023-05-07T12:18:46;97078.38;;;24.72;57.46
10348;BME280;5220;43.192;23.284;2023-05-07T12:21:13;97076.38;;;24.81;56.40
10348;BME280;5220;43.192;23.284;2023-05-07T12:23:44;97074.41;;;24.89;59.16
10348;BME280;5220;43.192;23.284;2023-05-07T12:26:11;97078.13;;;24.60;56.99
10348;BME280;5220;43.192;23.284;2023-05-07T12:28:39;97066.31;;;24.76;59.10
10348;BME280;5220;43.192;23.284;2023-05-07T12:31:05;97071.56;;;24.97;60.45
10348;BME280;5220;43.192;23.284;2023-05-07T12:33:34;97065.63;;;24.95;57.44
10348;BME280;5220;43.192;23.284;2023-05-07T12:36:04;97071.97;;;24.94;53.99
10348;BME280;5220;43.192;23.284;2023-05-07T12:38:36;97062.75;;;24.90;54.68
10348;BME280;5220;43.192;23.284;2023-05-07T12:41:06;97063.41;;;24.65;57.02
10348;BME280;5220;43.192;23.284;2023-05-07T12:43:34;97072.97;;;24.52;60.42
10348;BME280;5220;43.192;23.284;2023-05-07T12:46:04;97072.56;;;24.21;66.26
10348;BME280;5220;43.192;23.284;2023-05-07T12:48:31;97063.59;;;24.56;62.26
10348;BME280;5220;43.192;23.284;2023-05-07T12:50:59;97060.53;;;24.59;64.02
10348;BME280;5220;43.192;23.284;2023-05-07T12:53:27;97057.22;;;24.57;61.96
10348;BME280;5220;43.192;23.284;2023-05-07T12:55:56;97063.50;;;24.43;62.75
10348;BME280;5220;43.192;23.284;2023-05-07T12:58:27;97062.50;;;24.51;63.81